createdAt,value
2019-03-15T00:00:28.960Z,98721.34
2019-03-15T00:03:01.180Z,98724.69
2019-03-15T00:05:34.111Z,98727.33
2019-03-15T00:08:06.870Z,98724.72
2019-03-15T00:10:39.649Z,98725.91
2019-03-15T00:13:12.451Z,98731.77
2019-03-15T00:15:44.975Z,98736.84
2019-03-15T00:18:17.380Z,98736.98
2019-03-15T00:20:50.065Z,98733.08
2019-03-15T00:23:22.455Z,98734.00
2019-03-15T00:25:55.507Z,98745.73
2019-03-15T00:28:28.015Z,98743.13
2019-03-15T00:31:00.580Z,98748.80
2019-03-15T00:33:32.985Z,98742.55
2019-03-15T00:36:05.450Z,98749.06
2019-03-15T00:38:37.809Z,98750.75
2019-03-15T00:41:10.588Z,98753.59
2019-03-15T00:43:43.122Z,98756.05
2019-03-15T00:46:15.439Z,98765.94
2019-03-15T00:48:47.880Z,98765.94
2019-03-15T00:51:20.130Z,98765.86
2019-03-15T00:53:54.390Z,98761.02
2019-03-15T00:56:26.299Z,98771.89
2019-03-15T00:58:59.140Z,98767.09
2019-03-15T01:01:31.315Z,98772.91
2019-03-15T01:04:03.421Z,98772.99
2019-03-15T01:06:35.541Z,98775.41
2019-03-15T01:09:07.852Z,98772.30
2019-03-15T01:11:40.076Z,98774.56
2019-03-15T01:14:12.500Z,98780.35
2019-03-15T01:16:46.035Z,98788.44
2019-03-15T01:19:18.319Z,98786.14
2019-03-15T01:21:50.855Z,98788.91
2019-03-15T01:24:23.195Z,98788.67
2019-03-15T01:26:55.580Z,98785.50
2019-03-15T01:29:28.475Z,98794.16
2019-03-15T01:32:00.696Z,98803.75
2019-03-15T01:34:33.112Z,98800.79
2019-03-15T01:37:05.342Z,98804.09
2019-03-15T01:39:37.540Z,98806.88
2019-03-15T01:42:09.869Z,98810.33
2019-03-15T01:44:42.249Z,98804.39
2019-03-15T01:47:14.621Z,98807.95
2019-03-15T01:49:47.295Z,98805.69
2019-03-15T01:52:19.770Z,98813.16
2019-03-15T01:54:51.950Z,98813.52
2019-03-15T01:57:24.715Z,98820.03
2019-03-15T01:59:56.905Z,98817.42
2019-03-15T02:02:29.280Z,98827.02
2019-03-15T02:05:01.429Z,98833.06
2019-03-15T02:07:34.578Z,98838.61
2019-03-15T02:10:09.390Z,98832.28
2019-03-15T02:12:41.517Z,98840.95
2019-03-15T02:15:13.799Z,98841.17
2019-03-15T02:17:46.042Z,98847.20
2019-03-15T02:20:18.546Z,98843.78
2019-03-15T02:22:50.806Z,98855.34
2019-03-15T02:25:23.095Z,98859.88
2019-03-15T02:27:56.825Z,98852.41
2019-03-15T02:30:29.136Z,98861.75
2019-03-15T02:33:01.477Z,98858.88
2019-03-15T02:35:34.181Z,98876.49
2019-03-15T02:38:06.473Z,98876.33
2019-03-15T02:40:39.106Z,98879.61
2019-03-15T02:43:11.290Z,98881.19
2019-03-15T02:45:44.025Z,98897.80
2019-03-15T02:48:16.902Z,98895.75
2019-03-15T02:50:49.475Z,98901.25
2019-03-15T02:53:21.655Z,98905.48
2019-03-15T02:55:54.086Z,98915.06
2019-03-15T02:58:27.421Z,98912.36
2019-03-15T03:01:00.103Z,98917.40
2019-03-15T03:03:32.613Z,98917.29
2019-03-15T03:06:05.146Z,98920.57
2019-03-15T03:08:37.545Z,98928.03
2019-03-15T03:11:09.998Z,98921.35
2019-03-15T03:13:42.546Z,98932.73
2019-03-15T03:16:16.131Z,98928.87
2019-03-15T03:18:48.400Z,98926.55
2019-03-15T03:21:20.784Z,98934.75
2019-03-15T03:23:53.273Z,98936.72
2019-03-15T03:26:25.810Z,98938.83
2019-03-15T03:28:58.165Z,98943.69
2019-03-15T03:31:30.681Z,98950.66
2019-03-15T03:34:02.896Z,98950.63
2019-03-15T03:36:35.336Z,98955.13
2019-03-15T03:39:07.795Z,98958.76
2019-03-15T03:41:40.281Z,98963.22
2019-03-15T03:44:12.645Z,98959.88
2019-03-15T03:46:44.800Z,98965.73
2019-03-15T03:49:17.155Z,98966.67
2019-03-15T03:51:49.750Z,98968.97
2019-03-15T03:54:22.165Z,98976.42
2019-03-15T03:56:54.645Z,98974.73
2019-03-15T03:59:26.966Z,98974.25
2019-03-15T04:01:59.135Z,98981.78
2019-03-15T04:04:31.718Z,98986.78
2019-03-15T04:07:04.310Z,98985.66
2019-03-15T04:09:36.630Z,98991.98
2019-03-15T04:12:08.980Z,99000.05
2019-03-15T04:14:41.200Z,98995.97
2019-03-15T04:17:13.700Z,99003.22
2019-03-15T04:19:46.126Z,99005.23
2019-03-15T04:22:18.361Z,99011.00
2019-03-15T04:24:50.647Z,99010.44
2019-03-15T04:27:22.970Z,99019.91
2019-03-15T04:29:55.296Z,99026.89
2019-03-15T04:32:27.785Z,99028.58
2019-03-15T04:35:00.462Z,99039.63
2019-03-15T04:37:33.109Z,99040.37
2019-03-15T04:40:09.669Z,99046.43
2019-03-15T04:42:42.247Z,99057.22
2019-03-15T04:45:14.814Z,99057.59
2019-03-15T04:47:47.186Z,99064.02
2019-03-15T04:50:19.650Z,99058.16
2019-03-15T04:52:51.798Z,99070.25
2019-03-15T04:55:24.490Z,99070.81
2019-03-15T04:57:56.860Z,99074.62
2019-03-15T05:00:29.430Z,99077.15
2019-03-15T05:03:01.910Z,99080.85
2019-03-15T05:05:34.276Z,99081.31
2019-03-15T05:08:06.775Z,99084.20
2019-03-15T05:10:39.040Z,99086.59
2019-03-15T05:13:11.335Z,99092.83
2019-03-15T05:15:43.661Z,99098.89
2019-03-15T05:18:16.100Z,99092.72
2019-03-15T05:20:48.480Z,99092.09
2019-03-15T05:23:20.870Z,99095.64
2019-03-15T05:25:53.098Z,99094.41
2019-03-15T05:28:25.868Z,99101.95
2019-03-15T05:30:58.403Z,99101.57
2019-03-15T05:33:30.605Z,99110.34
2019-03-15T05:36:03.091Z,99106.53
2019-03-15T05:38:35.382Z,99111.75
2019-03-15T05:41:08.001Z,99115.45
2019-03-15T05:43:40.300Z,99109.67
2019-03-15T05:46:12.620Z,99118.45
2019-03-15T05:48:44.825Z,99125.14
2019-03-15T05:51:17.035Z,99124.19
2019-03-15T05:53:49.350Z,99126.23
2019-03-15T05:56:21.617Z,99128.63
2019-03-15T05:58:54.025Z,99134.23
2019-03-15T06:01:26.287Z,99133.95
2019-03-15T06:03:58.505Z,99134.16
2019-03-15T06:06:30.775Z,99140.79
2019-03-15T06:09:04.710Z,99138.19
2019-03-15T06:11:36.900Z,99142.34
2019-03-15T06:14:09.190Z,99147.56
2019-03-15T06:16:41.506Z,99153.52
2019-03-15T06:19:13.960Z,99152.84
2019-03-15T06:21:46.555Z,99159.86
2019-03-15T06:24:18.680Z,99161.41
2019-03-15T06:26:50.895Z,99165.61
2019-03-15T06:29:23.267Z,99160.67
2019-03-15T06:31:55.720Z,99167.19
2019-03-15T06:34:27.970Z,99162.15
2019-03-15T06:37:00.347Z,99172.77
2019-03-15T06:39:32.686Z,99173.89
2019-03-15T06:42:05.131Z,99178.36
2019-03-15T06:44:37.842Z,99192.05
2019-03-15T06:47:10.071Z,99181.40
2019-03-15T06:49:42.385Z,99189.97
2019-03-15T06:52:14.655Z,99190.31
2019-03-15T06:54:46.861Z,99198.45
2019-03-15T06:57:19.115Z,99201.31
2019-03-15T06:59:51.216Z,99197.78
2019-03-15T07:02:23.416Z,99198.41
2019-03-15T07:04:55.621Z,99201.93
2019-03-15T07:07:27.989Z,99214.59
2019-03-15T07:10:00.398Z,99207.61
2019-03-15T07:12:32.790Z,99209.59
2019-03-15T07:15:08.273Z,99219.14
2019-03-15T07:17:41.706Z,99214.81
2019-03-15T07:20:16.301Z,99215.28
2019-03-15T07:22:48.754Z,99220.35
2019-03-15T07:25:21.086Z,99219.08
2019-03-15T07:27:53.528Z,99219.86
2019-03-15T07:30:25.870Z,99218.38
2019-03-15T07:32:58.337Z,99226.31
2019-03-15T07:35:30.875Z,99220.84
2019-03-15T07:38:03.232Z,99229.05
2019-03-15T07:40:35.612Z,99231.73
2019-03-15T07:43:08.505Z,99231.87
2019-03-15T07:45:40.890Z,99233.45
2019-03-15T07:48:22.380Z,99244.47
2019-03-15T07:50:47.126Z,99236.09
2019-03-15T07:53:19.605Z,99246.30
2019-03-15T07:55:51.905Z,99245.14
2019-03-15T07:58:24.225Z,99242.02
2019-03-15T08:00:56.530Z,99241.50
2019-03-15T08:03:29.490Z,99243.84
2019-03-15T08:06:01.895Z,99248.06
2019-03-15T08:08:34.241Z,99246.45
2019-03-15T08:11:06.674Z,99246.45
2019-03-15T08:13:38.964Z,99258.29
2019-03-15T08:16:12.192Z,99251.80
2019-03-15T08:18:44.680Z,99253.74
2019-03-15T08:21:16.796Z,99270.90
2019-03-15T08:23:48.915Z,99267.94
2019-03-15T08:26:21.075Z,99274.52
2019-03-15T08:28:53.255Z,99275.16
2019-03-15T08:31:25.591Z,99282.07
2019-03-15T08:33:57.840Z,99286.70
2019-03-15T08:36:30.141Z,99286.39
2019-03-15T08:39:02.412Z,99285.55
2019-03-15T08:41:34.685Z,99305.02
2019-03-15T08:44:07.390Z,99302.08
2019-03-15T08:46:39.849Z,99310.00
2019-03-15T08:49:12.456Z,99309.09
2019-03-15T08:51:44.680Z,99312.92
2019-03-15T08:54:17.001Z,99316.44
2019-03-15T08:56:49.052Z,99316.51
2019-03-15T08:59:21.211Z,99317.97
2019-03-15T09:01:53.403Z,99323.64
2019-03-15T09:04:25.642Z,99315.53
2019-03-15T09:06:57.800Z,99322.75
2019-03-15T09:09:30.700Z,99326.14
2019-03-15T09:12:03.069Z,99326.25
2019-03-15T09:14:35.428Z,99333.38
2019-03-15T09:17:07.772Z,99331.27
2019-03-15T09:19:40.125Z,99331.27
2019-03-15T09:22:12.242Z,99319.88
2019-03-15T09:24:44.460Z,99322.37
2019-03-15T09:27:17.605Z,99323.64
2019-03-15T09:29:50.005Z,99327.41
2019-03-15T09:32:22.220Z,99327.59
2019-03-15T09:34:55.786Z,99324.19
2019-03-15T09:37:28.620Z,99324.34
2019-03-15T09:40:00.920Z,99329.08
2019-03-15T09:42:33.435Z,99334.78
2019-03-15T09:45:08.230Z,99333.75
2019-03-15T09:47:40.585Z,99330.56
2019-03-15T09:50:22.852Z,99337.27
2019-03-15T09:52:48.425Z,99332.34
2019-03-15T09:55:32.374Z,99336.27
2019-03-15T09:57:54.986Z,99329.68
2019-03-15T10:00:27.770Z,99334.45
2019-03-15T10:03:00.430Z,99338.63
2019-03-15T10:05:32.686Z,99338.63
2019-03-15T10:08:05.070Z,99338.47
2019-03-15T10:10:37.449Z,99340.39
2019-03-15T10:13:09.855Z,99339.55
2019-03-15T10:15:42.223Z,99338.44
2019-03-15T10:18:14.506Z,99338.44
2019-03-15T10:20:46.965Z,99336.44
2019-03-15T10:23:19.211Z,99339.13
2019-03-15T10:25:51.620Z,99333.34
2019-03-15T10:28:23.860Z,99333.71
2019-03-15T10:30:56.086Z,99338.33
2019-03-15T10:33:28.155Z,99344.41
2019-03-15T10:36:00.560Z,99350.98
2019-03-15T10:38:33.025Z,99344.30
2019-03-15T10:41:05.545Z,99342.52
2019-03-15T10:43:37.840Z,99344.82
2019-03-15T10:46:10.118Z,99343.98
2019-03-15T10:48:42.115Z,99339.19
2019-03-15T10:51:14.705Z,99346.02
2019-03-15T10:53:47.093Z,99348.61
2019-03-15T10:56:19.537Z,99348.61
2019-03-15T10:58:51.805Z,99340.02
2019-03-15T11:01:24.105Z,99351.20
2019-03-15T11:03:56.495Z,99351.58
2019-03-15T11:06:28.791Z,99356.23
2019-03-15T11:09:00.976Z,99354.32
2019-03-15T11:11:33.726Z,99357.58
2019-03-15T11:14:05.891Z,99355.20
2019-03-15T11:16:38.291Z,99353.75
2019-03-15T11:19:10.631Z,99364.78
2019-03-15T11:21:42.850Z,99375.72
2019-03-15T11:24:15.226Z,99363.11
2019-03-15T11:26:47.775Z,99363.20
2019-03-15T11:29:20.245Z,99373.83
2019-03-15T11:31:52.890Z,99377.13
2019-03-15T11:34:25.328Z,99373.78
2019-03-15T11:36:58.730Z,99378.12
2019-03-15T11:39:31.317Z,99380.88
2019-03-15T11:42:03.626Z,99365.11
2019-03-15T11:44:35.757Z,99369.95
2019-03-15T11:47:08.017Z,99372.53
2019-03-15T11:49:40.301Z,99370.56
2019-03-15T11:52:12.727Z,99364.96
2019-03-15T11:54:45.016Z,99366.64
2019-03-15T11:57:17.291Z,99372.36
2019-03-15T11:59:49.796Z,99368.90
2019-03-15T12:02:22.186Z,99360.05
2019-03-15T12:04:54.405Z,99360.84
2019-03-15T12:07:27.006Z,99362.56
2019-03-15T12:09:59.266Z,99350.81
2019-03-15T12:12:31.526Z,99339.44
2019-03-15T12:15:06.686Z,99355.83
2019-03-15T12:17:38.925Z,99351.80
2019-03-15T12:20:12.412Z,99360.97
2019-03-15T12:22:44.669Z,99356.94
2019-03-15T12:25:17.066Z,99370.89
2019-03-15T12:27:49.465Z,99370.47
2019-03-15T12:30:21.525Z,99370.81
2019-03-15T12:32:53.646Z,99372.16
2019-03-15T12:35:25.945Z,99361.39
2019-03-15T12:37:58.525Z,99350.44
2019-03-15T12:40:30.906Z,99351.25
2019-03-15T12:43:03.310Z,99353.91
2019-03-15T12:45:35.566Z,99351.98
2019-03-15T12:48:07.945Z,99353.81
2019-03-15T12:50:41.006Z,99358.50
2019-03-15T12:53:13.445Z,99340.45
2019-03-15T12:55:45.527Z,99339.50
2019-03-15T12:58:17.769Z,99346.22
2019-03-15T13:00:50.105Z,99348.25
2019-03-15T13:03:22.428Z,99344.29
2019-03-15T13:05:54.505Z,99341.20
2019-03-15T13:08:26.985Z,99337.92
2019-03-15T13:10:59.270Z,99331.04
2019-03-15T13:13:31.508Z,99334.38
2019-03-15T13:16:03.705Z,99324.48
2019-03-15T13:18:35.835Z,99321.46
2019-03-15T13:21:08.028Z,99313.48
2019-03-15T13:23:40.253Z,99311.49
2019-03-15T13:26:12.465Z,99316.27
2019-03-15T13:28:44.846Z,99312.33
2019-03-15T13:31:16.985Z,99307.31
2019-03-15T13:33:49.405Z,99302.63
2019-03-15T13:36:21.646Z,99306.09
2019-03-15T13:38:54.066Z,99303.99
2019-03-15T13:41:27.065Z,99294.92
2019-03-15T13:43:59.108Z,99296.34
2019-03-15T13:46:31.205Z,99286.64
2019-03-15T13:49:03.425Z,99286.81
2019-03-15T13:51:35.689Z,99292.28
2019-03-15T13:54:08.036Z,99272.82
2019-03-15T13:56:40.206Z,99274.14
2019-03-15T13:59:12.406Z,99272.75
2019-03-15T14:01:44.631Z,99274.67
2019-03-15T14:04:17.045Z,99273.68
2019-03-15T14:06:49.205Z,99275.09
2019-03-15T14:09:21.485Z,99278.95
2019-03-15T14:11:53.645Z,99272.42
2019-03-15T14:14:26.028Z,99265.84
2019-03-15T14:16:59.465Z,99257.48
2019-03-15T14:19:32.205Z,99250.75
2019-03-15T14:22:06.140Z,99227.48
2019-03-15T14:24:38.346Z,99212.87
2019-03-15T14:27:10.526Z,99211.38
2019-03-15T14:29:42.845Z,99218.67
2019-03-15T14:32:15.187Z,99209.53
2019-03-15T14:34:47.805Z,99204.83
2019-03-15T14:37:20.232Z,99202.76
2019-03-15T14:39:52.903Z,99196.19
2019-03-15T14:42:25.400Z,99187.59
2019-03-15T14:44:58.141Z,99185.66
2019-03-15T14:47:30.595Z,99182.59
2019-03-15T14:50:03.157Z,99165.74
2019-03-15T14:52:35.570Z,99154.18
2019-03-15T14:55:11.434Z,99157.75
2019-03-15T14:57:51.872Z,99164.23
2019-03-15T15:00:22.386Z,99160.27
2019-03-15T15:02:54.616Z,99157.14
2019-03-15T15:05:26.833Z,99145.93
2019-03-15T15:07:58.911Z,99144.38
2019-03-15T15:10:31.191Z,99146.07
2019-03-15T15:13:03.273Z,99142.53
2019-03-15T15:15:35.330Z,99132.16
2019-03-15T15:18:07.490Z,99128.72
2019-03-15T15:20:39.547Z,99119.92
2019-03-15T15:23:12.191Z,99113.86
2019-03-15T15:25:44.818Z,99103.69
2019-03-15T15:28:16.975Z,99095.58
2019-03-15T15:30:49.136Z,99085.91
2019-03-15T15:33:21.196Z,99079.13
2019-03-15T15:35:53.416Z,99069.13
2019-03-15T15:38:26.916Z,99073.47
2019-03-15T15:40:59.851Z,99058.82
2019-03-15T15:43:32.380Z,99065.52
2019-03-15T15:46:05.055Z,99067.77
2019-03-15T15:48:38.651Z,99054.80
2019-03-15T15:51:10.946Z,99042.78
2019-03-15T15:53:43.516Z,99034.30
2019-03-15T15:56:15.845Z,99032.80
2019-03-15T15:58:48.166Z,99030.07
2019-03-15T16:01:20.911Z,99033.66
2019-03-15T16:03:53.532Z,99028.56
2019-03-15T16:06:26.023Z,99019.05
2019-03-15T16:08:59.881Z,99019.41
2019-03-15T16:11:32.820Z,99008.80
2019-03-15T16:14:05.195Z,99009.80
2019-03-15T16:16:37.492Z,99018.15
2019-03-15T16:19:10.977Z,99014.57
2019-03-15T16:21:43.241Z,99019.02
2019-03-15T16:24:15.895Z,99002.81
2019-03-15T16:26:48.710Z,99016.17
2019-03-15T16:29:21.345Z,99004.84
2019-03-15T16:31:53.755Z,98994.61
2019-03-15T16:34:26.247Z,98981.97
2019-03-15T16:36:58.844Z,98984.96
2019-03-15T16:39:31.285Z,98986.19
2019-03-15T16:42:03.860Z,98984.52
2019-03-15T16:44:36.470Z,98977.63
2019-03-15T16:47:08.905Z,98976.20
2019-03-15T16:49:41.365Z,98982.98
2019-03-15T16:52:13.635Z,98980.95
2019-03-15T16:54:46.075Z,98987.30
2019-03-15T16:57:18.765Z,98974.30
2019-03-15T16:59:51.205Z,98966.95
2019-03-15T17:02:23.578Z,98957.66
2019-03-15T17:04:55.940Z,98957.66
2019-03-15T17:07:28.196Z,98967.63
2019-03-15T17:10:00.575Z,98954.91
2019-03-15T17:12:33.235Z,98955.76
2019-03-15T17:15:10.175Z,98958.47
2019-03-15T17:17:42.715Z,98938.11
2019-03-15T17:20:15.114Z,98931.10
2019-03-15T17:22:47.860Z,98921.19
2019-03-15T17:25:20.435Z,98903.33
2019-03-15T17:27:52.785Z,98903.33
2019-03-15T17:30:25.201Z,98894.67
2019-03-15T17:32:57.676Z,98894.42
2019-03-15T17:35:29.921Z,98890.74
2019-03-15T17:38:02.441Z,98903.45
2019-03-15T17:40:34.809Z,98894.75
2019-03-15T17:43:07.385Z,98889.64
2019-03-15T17:45:39.755Z,98884.88
2019-03-15T17:48:12.205Z,98888.59
2019-03-15T17:50:44.850Z,98888.59
2019-03-15T17:53:17.230Z,98877.62
2019-03-15T17:55:49.556Z,98869.30
2019-03-15T17:58:21.995Z,98860.98
2019-03-15T18:00:54.551Z,98860.98
2019-03-15T18:03:27.074Z,98834.45
2019-03-15T18:05:59.750Z,98834.45
2019-03-15T18:08:32.249Z,98845.50
2019-03-15T18:11:04.780Z,98845.88
2019-03-15T18:13:37.376Z,98841.23
2019-03-15T18:16:09.840Z,98843.52
2019-03-15T18:18:42.545Z,98837.31
2019-03-15T18:21:15.159Z,98817.11
2019-03-15T18:23:47.922Z,98817.11
2019-03-15T18:26:20.280Z,98804.15
2019-03-15T18:28:52.609Z,98804.15
2019-03-15T18:31:25.115Z,98788.45
2019-03-15T18:33:57.780Z,98816.27
2019-03-15T18:36:30.301Z,98807.95
2019-03-15T18:39:02.895Z,98823.18
2019-03-15T18:41:35.310Z,98816.76
2019-03-15T18:44:07.624Z,98793.08
2019-03-15T18:46:40.125Z,98793.08
2019-03-15T18:49:12.602Z,98802.71
2019-03-15T18:51:45.138Z,98805.20
2019-03-15T18:54:18.115Z,98806.04
2019-03-15T18:56:50.945Z,98785.11
2019-03-15T18:59:23.729Z,98786.88
2019-03-15T19:01:56.374Z,98774.64
2019-03-15T19:04:28.770Z,98774.98
2019-03-15T19:07:01.295Z,98759.90
2019-03-15T19:09:33.867Z,98770.95
2019-03-15T19:12:06.230Z,98770.95
2019-03-15T19:14:38.880Z,98784.97
2019-03-15T19:17:11.772Z,98779.51
2019-03-15T19:19:44.795Z,98750.72
2019-03-15T19:22:17.893Z,98759.88
2019-03-15T19:24:50.350Z,98762.38
2019-03-15T19:27:22.960Z,98756.56
2019-03-15T19:29:55.495Z,98751.55
2019-03-15T19:32:28.182Z,98740.86
2019-03-15T19:35:00.725Z,98733.47
2019-03-15T19:37:33.175Z,98711.70
2019-03-15T19:40:09.476Z,98709.81
2019-03-15T19:42:45.012Z,98709.81
2019-03-15T19:45:18.389Z,98729.31
2019-03-15T19:47:51.490Z,98734.21
2019-03-15T19:50:23.980Z,98734.34
2019-03-15T19:52:56.707Z,98715.78
2019-03-15T19:55:29.265Z,98715.78
2019-03-15T19:58:01.681Z,98723.88
2019-03-15T20:00:34.316Z,98721.02
2019-03-15T20:03:06.834Z,98726.72
2019-03-15T20:05:39.409Z,98727.55
2019-03-15T20:08:11.984Z,98712.91
2019-03-15T20:10:44.505Z,98709.23
2019-03-15T20:13:16.891Z,98725.53
2019-03-15T20:15:50.880Z,98733.98
2019-03-15T20:18:23.626Z,98724.35
2019-03-15T20:20:56.035Z,98734.22
2019-03-15T20:23:28.560Z,98740.98
2019-03-15T20:26:02.270Z,98743.84
2019-03-15T20:28:34.999Z,98730.18
2019-03-15T20:31:07.883Z,98734.83
2019-03-15T20:33:41.370Z,98738.25
2019-03-15T20:36:13.796Z,98748.02
2019-03-15T20:38:46.615Z,98753.16
2019-03-15T20:41:19.764Z,98746.83
2019-03-15T20:43:52.320Z,98746.62
2019-03-15T20:46:35.199Z,98745.06
2019-03-15T20:48:58.901Z,98746.83
2019-03-15T20:51:31.706Z,98749.91
2019-03-15T20:54:04.226Z,98737.22
2019-03-15T20:56:36.635Z,98741.48
2019-03-15T20:59:09.395Z,98746.83
2019-03-15T21:01:41.750Z,98753.73
2019-03-15T21:04:14.175Z,98762.05
2019-03-15T21:06:47.144Z,98757.28
2019-03-15T21:09:20.671Z,98748.39
2019-03-15T21:11:53.094Z,98764.28
2019-03-15T21:14:25.460Z,98750.63
2019-03-15T21:16:57.905Z,98760.24
2019-03-15T21:19:30.583Z,98752.40
2019-03-15T21:22:03.026Z,98759.19
2019-03-15T21:24:35.326Z,98776.05
2019-03-15T21:27:07.686Z,98775.92
2019-03-15T21:29:39.965Z,98772.00
2019-03-15T21:32:12.767Z,98782.36
2019-03-15T21:34:44.965Z,98787.47
2019-03-15T21:37:17.480Z,98789.95
2019-03-15T21:39:50.035Z,98782.46
2019-03-15T21:42:22.430Z,98782.70
2019-03-15T21:44:54.900Z,98781.73
2019-03-15T21:47:27.655Z,98776.28
2019-03-15T21:50:00.482Z,98766.55
2019-03-15T21:52:32.915Z,98763.56
2019-03-15T21:55:05.937Z,98780.55
2019-03-15T21:57:38.394Z,98782.10
2019-03-15T22:00:20.935Z,98788.75
2019-03-15T22:02:53.339Z,98788.38
2019-03-15T22:05:25.570Z,98802.40
2019-03-15T22:07:58.170Z,98800.38
2019-03-15T22:10:30.470Z,98783.24
2019-03-15T22:13:02.977Z,98794.14
2019-03-15T22:15:35.255Z,98800.79
2019-03-15T22:18:07.860Z,98812.45
2019-03-15T22:20:40.410Z,98811.52
2019-03-15T22:23:12.877Z,98806.78
2019-03-15T22:25:45.655Z,98815.34
2019-03-15T22:28:18.685Z,98808.95
2019-03-15T22:30:51.090Z,98813.09
2019-03-15T22:33:23.837Z,98835.30
2019-03-15T22:35:56.194Z,98835.22
2019-03-15T22:38:28.640Z,98834.83
2019-03-15T22:41:01.365Z,98831.87
2019-03-15T22:43:33.745Z,98836.38
2019-03-15T22:46:07.330Z,98837.87
2019-03-15T22:48:39.607Z,98841.45
2019-03-15T22:51:12.175Z,98849.51
2019-03-15T22:53:44.635Z,98849.66
2019-03-15T22:56:17.005Z,98840.53
2019-03-15T22:58:49.495Z,98844.73
2019-03-15T23:01:30.236Z,98840.81
2019-03-15T23:03:56.086Z,98868.28
2019-03-15T23:06:28.760Z,98855.80
2019-03-15T23:09:00.936Z,98858.53
2019-03-15T23:11:34.008Z,98860.88
2019-03-15T23:14:06.485Z,98867.41
2019-03-15T23:16:38.875Z,98867.05
2019-03-15T23:19:11.055Z,98867.66
2019-03-15T23:21:43.550Z,98865.37
2019-03-15T23:24:15.871Z,98871.69
2019-03-15T23:26:49.219Z,98867.38
2019-03-15T23:29:21.535Z,98879.52
2019-03-15T23:31:54.046Z,98882.47
2019-03-15T23:34:27.490Z,98881.28
2019-03-15T23:36:59.795Z,98897.20
2019-03-15T23:39:32.256Z,98903.01
2019-03-15T23:42:04.644Z,98899.81
2019-03-15T23:44:36.835Z,98904.66
2019-03-15T23:47:09.160Z,98914.91
2019-03-15T23:49:41.680Z,98907.07
2019-03-15T23:52:13.915Z,98901.47
2019-03-15T23:54:46.145Z,98881.13
2019-03-15T23:57:19.360Z,98901.74
2019-03-15T23:59:51.675Z,98896.41
